createdAt,value
2022-12-07T00:01:56.542Z,6.53
2022-12-07T00:07:02.906Z,6.15
2022-12-07T00:12:04.672Z,6.22
2022-12-07T00:17:13.510Z,5.80
2022-12-07T00:22:24.870Z,6.57
2022-12-07T00:27:28.086Z,6.43
2022-12-07T00:32:39.318Z,6.35
2022-12-07T00:37:46.482Z,6.05
2022-12-07T00:42:48.053Z,6.35
2022-12-07T00:47:51.969Z,7.05
2022-12-07T00:52:56.549Z,7.72
2022-12-07T00:58:01.376Z,7.95
2022-12-07T01:03:12.458Z,7.15
2022-12-07T01:08:25.615Z,7.82
2022-12-07T01:13:29.488Z,7.43
2022-12-07T01:18:33.401Z,7.93
2022-12-07T01:23:37.259Z,7.70
2022-12-07T01:28:48.044Z,8.50
2022-12-07T01:34:06.535Z,8.85
2022-12-07T01:44:24.358Z,8.07
2022-12-07T01:49:49.487Z,7.78
2022-12-07T01:55:04.683Z,7.82
2022-12-07T02:00:18.273Z,7.28
2022-12-07T02:05:20.628Z,7.90
2022-12-07T02:10:35.602Z,7.50
2022-12-07T02:15:52.892Z,8.70
2022-12-07T02:21:12.950Z,7.65
2022-12-07T02:26:22.969Z,8.02
2022-12-07T02:31:40.143Z,8.45
2022-12-07T02:36:52.596Z,8.25
2022-12-07T02:42:17.879Z,8.07
2022-12-07T02:47:22.273Z,8.43
2022-12-07T02:52:28.297Z,8.00
2022-12-07T02:57:48.427Z,8.52
2022-12-07T03:03:06.561Z,7.95
2022-12-07T03:13:36.585Z,6.97
2022-12-07T03:18:54.551Z,7.07
2022-12-07T03:24:14.873Z,6.90
2022-12-07T03:29:28.718Z,7.95
2022-12-07T03:34:46.949Z,8.32
2022-12-07T03:40:06.575Z,8.60
2022-12-07T03:45:34.177Z,9.10
2022-12-07T03:50:46.300Z,8.52
2022-12-07T03:55:50.030Z,9.18
2022-12-07T04:00:54.122Z,9.13
2022-12-07T04:06:04.736Z,9.45
2022-12-07T04:11:08.798Z,8.93
2022-12-07T04:16:12.658Z,9.30
2022-12-07T04:21:17.183Z,10.27
2022-12-07T04:26:26.297Z,9.23
2022-12-07T04:31:32.490Z,9.13
2022-12-07T04:36:34.377Z,9.88
2022-12-07T04:41:35.936Z,10.20
2022-12-07T04:46:37.463Z,11.13
2022-12-07T04:51:42.782Z,11.13
2022-12-07T04:56:44.746Z,10.90
2022-12-07T05:01:50.855Z,11.75
2022-12-07T05:06:54.646Z,11.18
2022-12-07T05:12:08.195Z,11.43
2022-12-07T05:17:13.709Z,10.63
2022-12-07T05:22:20.197Z,12.10
2022-12-07T05:27:29.330Z,11.93
2022-12-07T05:32:35.261Z,11.50
2022-12-07T05:37:40.982Z,12.23
2022-12-07T05:42:45.251Z,11.63
2022-12-07T05:47:50.331Z,12.23
2022-12-07T05:52:54.377Z,12.68
2022-12-07T05:58:21.861Z,12.38
2022-12-07T06:03:30.568Z,10.05
2022-12-07T06:08:32.336Z,13.02
2022-12-07T06:13:39.184Z,12.52
2022-12-07T06:18:49.049Z,12.77
2022-12-07T06:23:53.427Z,13.70
2022-12-07T06:28:54.974Z,13.02
2022-12-07T06:34:04.211Z,13.43
2022-12-07T06:39:14.963Z,13.25
2022-12-07T06:44:18.788Z,13.65
2022-12-07T06:49:21.882Z,13.18
2022-12-07T06:54:29.525Z,14.23
2022-12-07T06:59:39.953Z,14.02
2022-12-07T07:05:06.426Z,14.75
2022-12-07T07:10:19.635Z,14.48
2022-12-07T07:15:27.212Z,14.23
2022-12-07T07:20:36.481Z,13.65
2022-12-07T07:25:38.451Z,12.60
2022-12-07T07:30:52.537Z,14.52
2022-12-07T07:35:56.372Z,13.90
2022-12-07T07:40:58.063Z,13.85
2022-12-07T07:46:02.244Z,13.95
2022-12-07T07:51:08.141Z,14.30
2022-12-07T07:56:13.216Z,14.07
2022-12-07T08:01:18.716Z,14.00
2022-12-07T08:06:30.567Z,14.20
2022-12-07T08:11:37.500Z,13.27
2022-12-07T08:16:44.479Z,14.15
2022-12-07T08:21:55.532Z,12.95
2022-12-07T08:26:59.310Z,12.73
2022-12-07T08:32:06.566Z,13.10
2022-12-07T08:37:11.026Z,13.77
2022-12-07T08:42:22.034Z,12.35
2022-12-07T08:47:26.423Z,13.60
2022-12-07T08:52:34.610Z,12.70
2022-12-07T08:57:41.989Z,12.00
2022-12-07T09:02:47.337Z,12.18
2022-12-07T09:07:55.409Z,12.68
2022-12-07T09:13:03.998Z,13.57
2022-12-07T09:18:07.021Z,12.13
2022-12-07T09:23:08.600Z,12.45
2022-12-07T09:28:12.904Z,12.43
2022-12-07T09:33:16.290Z,12.48
2022-12-07T09:38:25.584Z,13.25
2022-12-07T09:43:41.887Z,12.68
2022-12-07T09:48:51.383Z,12.90
2022-12-07T09:53:58.476Z,12.88
2022-12-07T09:59:06.218Z,13.38
2022-12-07T10:04:38.420Z,13.05
2022-12-07T10:09:42.395Z,12.80
2022-12-07T10:15:09.299Z,12.75
2022-12-07T10:20:28.614Z,12.35
2022-12-07T10:25:41.701Z,12.93
2022-12-07T10:30:54.862Z,12.50
2022-12-07T10:36:01.462Z,12.85
2022-12-07T10:41:07.818Z,12.27
2022-12-07T10:46:44.214Z,12.45
2022-12-07T10:52:25.803Z,11.77
2022-12-07T10:57:30.677Z,12.00
2022-12-07T11:02:52.803Z,11.88
2022-12-07T11:08:07.768Z,11.63
2022-12-07T11:13:33.569Z,10.95
2022-12-07T11:19:02.109Z,10.88
2022-12-07T11:24:20.185Z,11.18
2022-12-07T11:29:45.564Z,10.48
2022-12-07T11:34:57.959Z,10.93
2022-12-07T11:40:13.609Z,10.00
2022-12-07T11:45:29.572Z,9.57
2022-12-07T11:50:48.698Z,8.68
2022-12-07T11:56:14.195Z,8.02
2022-12-07T12:01:34.401Z,7.97
2022-12-07T12:06:40.408Z,8.30
2022-12-07T12:17:58.762Z,8.40
2022-12-07T12:23:40.901Z,9.80
2022-12-07T12:28:50.389Z,8.52
2022-12-07T12:34:26.117Z,7.95
2022-12-07T12:39:28.846Z,9.02
2022-12-07T12:44:34.299Z,8.15
2022-12-07T12:49:45.404Z,8.65
2022-12-07T12:55:02.240Z,8.00
2022-12-07T13:00:23.605Z,9.00
2022-12-07T13:05:36.033Z,9.13
2022-12-07T13:10:39.817Z,10.30
2022-12-07T13:16:15.973Z,8.20
2022-12-07T13:21:19.661Z,8.18
2022-12-07T13:26:30.299Z,7.60
2022-12-07T13:31:50.359Z,7.80
2022-12-07T13:36:53.481Z,7.53
2022-12-07T13:42:09.209Z,8.43
2022-12-07T13:47:18.916Z,7.50
2022-12-07T13:52:31.340Z,8.20
2022-12-07T13:57:41.667Z,8.30
2022-12-07T14:03:02.780Z,8.77
2022-12-07T14:08:14.171Z,8.15
2022-12-07T14:13:37.952Z,8.57
2022-12-07T14:18:44.843Z,8.00
2022-12-07T14:24:02.834Z,7.40
2022-12-07T14:29:31.268Z,32.00
2022-12-07T14:34:53.380Z,7.65
2022-12-07T14:39:55.310Z,7.22
2022-12-07T14:45:01.082Z,6.63
2022-12-07T14:50:20.708Z,6.15
2022-12-07T14:55:32.985Z,6.90
2022-12-07T15:00:39.849Z,5.65
2022-12-07T15:05:44.518Z,5.97
2022-12-07T15:10:55.837Z,5.60
2022-12-07T15:16:00.972Z,6.80
2022-12-07T15:21:11.195Z,6.30
2022-12-07T15:26:21.720Z,4.63
2022-12-07T15:31:58.997Z,6.68
2022-12-07T15:36:51.237Z,6.10
2022-12-07T15:42:00.614Z,6.93
2022-12-07T15:47:02.175Z,6.03
2022-12-07T15:52:13.500Z,6.55
2022-12-07T15:57:15.253Z,9.88
2022-12-07T16:02:18.953Z,6.65
2022-12-07T16:07:20.527Z,8.25
2022-12-07T16:12:22.803Z,6.72
2022-12-07T16:17:31.163Z,6.38
2022-12-07T16:22:37.036Z,6.45
2022-12-07T16:27:48.458Z,6.63
2022-12-07T16:32:53.688Z,6.78
2022-12-07T16:38:00.237Z,6.57
2022-12-07T16:43:02.124Z,7.90
2022-12-07T16:48:15.706Z,7.68
2022-12-07T16:53:22.265Z,7.03
2022-12-07T16:58:26.827Z,7.60
2022-12-07T17:03:32.183Z,7.20
2022-12-07T17:08:42.542Z,7.68
2022-12-07T17:14:16.118Z,7.68
2022-12-07T17:19:17.748Z,7.78
2022-12-07T17:24:22.776Z,8.07
2022-12-07T17:29:29.129Z,7.97
2022-12-07T17:34:39.033Z,8.00
2022-12-07T17:39:40.516Z,8.02
2022-12-07T17:44:42.718Z,8.32
2022-12-07T17:49:47.046Z,8.30
2022-12-07T17:54:52.661Z,8.77
2022-12-07T17:59:55.444Z,8.68
2022-12-07T18:05:01.488Z,8.73
2022-12-07T18:10:16.198Z,8.82
2022-12-07T18:15:28.403Z,8.90
2022-12-07T18:20:30.002Z,8.98
2022-12-07T18:25:39.524Z,9.50
2022-12-07T18:31:14.396Z,9.00
2022-12-07T18:36:22.866Z,9.70
2022-12-07T18:41:29.135Z,9.35
2022-12-07T18:46:30.850Z,9.43
2022-12-07T18:51:34.867Z,12.32
2022-12-07T18:56:40.735Z,10.52
2022-12-07T19:01:55.189Z,10.13
2022-12-07T19:06:59.267Z,9.73
2022-12-07T19:12:03.400Z,10.20
2022-12-07T19:17:15.218Z,9.40
2022-12-07T19:22:23.351Z,11.15
2022-12-07T19:27:27.017Z,10.23
2022-12-07T19:32:32.698Z,11.23
2022-12-07T19:37:34.264Z,10.93
2022-12-07T19:42:38.428Z,11.25
2022-12-07T19:47:40.074Z,11.27
2022-12-07T19:52:46.239Z,10.98
2022-12-07T19:57:50.347Z,24.70
2022-12-07T20:02:54.139Z,12.23
2022-12-07T20:07:58.854Z,11.85
2022-12-07T20:13:27.747Z,12.35
2022-12-07T20:18:31.650Z,12.48
2022-12-07T20:23:38.604Z,12.25
2022-12-07T20:28:46.263Z,12.52
2022-12-07T20:33:54.131Z,12.13
2022-12-07T20:39:01.183Z,11.95
2022-12-07T20:44:02.802Z,11.48
2022-12-07T20:49:13.661Z,12.63
2022-12-07T20:54:15.631Z,11.23
2022-12-07T20:59:38.162Z,12.25
2022-12-07T21:04:47.640Z,10.68
2022-12-07T21:09:56.580Z,11.20
2022-12-07T21:15:04.098Z,11.60
2022-12-07T21:20:11.222Z,12.27
2022-12-07T21:25:14.608Z,12.23
2022-12-07T21:30:19.642Z,11.98
2022-12-07T21:35:21.243Z,12.35
2022-12-07T21:40:23.791Z,12.25
2022-12-07T21:45:27.659Z,11.90
2022-12-07T21:50:29.209Z,13.45
2022-12-07T21:55:39.764Z,13.30
2022-12-07T22:00:47.443Z,11.63
2022-12-07T22:05:56.622Z,11.68
2022-12-07T22:11:08.623Z,11.43
2022-12-07T22:16:15.299Z,12.10
2022-12-07T22:21:20.405Z,11.05
2022-12-07T22:26:24.599Z,13.10
2022-12-07T22:31:34.612Z,13.50
2022-12-07T22:36:41.161Z,12.10
2022-12-07T22:41:42.830Z,11.93
2022-12-07T22:46:46.071Z,10.48
2022-12-07T22:51:56.177Z,10.68
2022-12-07T22:57:02.357Z,11.65
2022-12-07T23:02:07.559Z,10.98
2022-12-07T23:07:09.142Z,11.25
2022-12-07T23:12:29.430Z,11.13
2022-12-07T23:17:34.952Z,11.25
2022-12-07T23:22:38.640Z,12.63
2022-12-07T23:27:44.713Z,11.60
2022-12-07T23:32:48.753Z,11.68
2022-12-07T23:37:53.254Z,11.48
2022-12-07T23:43:06.360Z,11.43
2022-12-07T23:48:12.580Z,10.75
2022-12-07T23:53:14.221Z,11.32
2022-12-07T23:58:21.846Z,12.07
